Time;durP1;ratioP1;P1;durP2;ratioP2;P2;SDS_P1;SDS_P2;PMS_P1;PMS_P2;Temp;Humidity;BMP_temperature;BMP_pressure;BME280_temperature;BME280_humidity;BME280_pressure;Samples;Min_cycle;Max_cycle;Signal;HPM_P1;HPM_P2
2023/03/28 00:04:52;;;;;;;0.43;0.10;;;-1.40;66.10;;;;;;20423246;29;20484;-53
2023/03/28 00:14:56;;;;;;;0.35;0.10;;;-1.90;65.40;;;;;;20462331;29;20099;-52
2023/03/28 00:24:58;;;;;;;0.65;0.13;;;-1.70;64.80;;;;;;20415249;29;20050;-49
2023/03/28 00:35:00;;;;;;;1.42;0.17;;;-1.60;66.90;;;;;;20419803;29;20103;-52
2023/03/28 00:45:02;;;;;;;0.75;0.20;;;-2.40;70.30;;;;;;20421366;29;20039;-50
2023/03/28 00:55:06;;;;;;;1.35;0.20;;;-2.90;72.30;;;;;;20499194;29;20031;-45
2023/03/28 01:05:08;;;;;;;0.63;0.17;;;-3.10;73.40;;;;;;20418741;29;20103;-47
2023/03/28 01:15:10;;;;;;;1.33;0.10;;;-2.90;72.90;;;;;;20401300;29;20048;-45
2023/03/28 01:25:42;;;;;;;0.30;0.10;;;-2.90;73.10;;;;;;20395716;29;20033;-49
2023/03/28 01:35:57;;;;;;;0.30;0.10;;;-2.70;72.40;;;;;;20417861;29;20099;-52
2023/03/28 01:46:07;;;;;;;1.30;0.10;;;-2.60;71.50;;;;;;20400305;29;20032;-50
2023/03/28 01:56:23;;;;;;;0.67;0.10;;;-2.60;73.70;;;;;;20470503;29;20039;-48
2023/03/28 02:06:30;;;;;;;0.30;0.17;;;-2.20;70.20;;;;;;20414286;29;20098;-50
2023/03/28 02:16:37;;;;;;;1.38;0.10;;;-2.20;70.60;;;;;;20429126;29;20028;-50
2023/03/28 02:26:46;;;;;;;0.57;0.10;;;-2.20;72.00;;;;;;20442885;29;20040;-53
2023/03/28 02:37:12;;;;;;;0.43;0.10;;;-2.60;74.60;;;;;;20414264;29;20409;-49
2023/03/28 02:47:37;;;;;;;0.38;0.10;;;-2.80;76.90;;;;;;20410398;29;20079;-48
2023/03/28 02:57:47;;;;;;;1.70;0.08;;;-3.10;76.70;;;;;;20425622;29;20035;-45
2023/03/28 03:07:50;;;;;;;0.57;0.10;;;-3.20;80.40;;;;;;20448684;29;20075;-48
2023/03/28 03:17:52;;;;;;;1.20;0.10;;;-3.40;82.30;;;;;;20442520;29;20039;-51
2023/03/28 03:28:00;;;;;;;0.15;0.10;;;-3.60;82.60;;;;;;20418643;29;20051;-49
2023/03/28 03:38:03;;;;;;;0.55;0.10;;;-3.40;79.80;;;;;;20424011;29;20459;-50
2023/03/28 03:48:05;;;;;;;1.60;0.32;;;-2.50;76.20;;;;;;20428517;29;20440;-44
2023/03/28 03:58:07;;;;;;;0.17;0.10;;;-2.10;74.90;;;;;;20477432;29;20246;-49
2023/03/28 04:08:10;;;;;;;3.28;0.10;;;-2.00;74.40;;;;;;20393810;29;20039;-48
2023/03/28 04:18:16;;;;;;;0.60;0.20;;;-1.90;73.40;;;;;;20398919;29;20032;-49
2023/03/28 04:28:24;;;;;;;0.40;0.10;;;-2.30;76.80;;;;;;20395406;29;20028;-51
2023/03/28 04:38:40;;;;;;;0.10;0.10;;;-2.70;79.20;;;;;;20402665;29;20054;-48
2023/03/28 04:49:14;;;;;;;0.93;0.20;;;-3.00;79.50;;;;;;20394134;29;20056;-51
2023/03/28 04:59:17;;;;;;;0.10;0.00;;;-2.90;78.20;;;;;;20464856;29;20027;-48
2023/03/28 05:09:19;;;;;;;1.05;0.22;;;-2.70;76.90;;;;;;20360011;29;20099;-51
2023/03/28 05:19:21;;;;;;;0.20;0.10;;;-2.50;75.70;;;;;;20382884;29;20032;-50
2023/03/28 05:29:46;;;;;;;0.20;0.10;;;-2.60;76.60;;;;;;20336250;29;20485;-50
2023/03/28 05:39:48;;;;;;;3.03;0.20;;;-2.50;76.10;;;;;;20375272;29;20454;-52
2023/03/28 05:49:51;;;;;;;0.20;0.05;;;-2.50;77.50;;;;;;20337332;29;20440;-48
2023/03/28 05:59:54;;;;;;;0.77;0.10;;;-2.80;78.50;;;;;;20386915;29;20116;-49
2023/03/28 06:10:00;;;;;;;0.25;0.10;;;-2.70;79.80;;;;;;20406968;29;20106;-52
2023/03/28 06:20:05;;;;;;;0.10;0.10;;;-2.90;83.10;;;;;;20407078;29;20039;-51
2023/03/28 06:30:07;;;;;;;0.10;0.03;;;-2.90;82.90;;;;;;20445056;29;20409;-50
2023/03/28 06:40:17;;;;;;;0.10;0.07;;;-2.60;82.40;;;;;;20454116;28;20044;-46
2023/03/28 06:50:19;;;;;;;0.35;0.20;;;-2.60;81.90;;;;;;20431303;29;20318;-52
2023/03/28 07:00:32;;;;;;;0.20;0.10;;;-2.00;77.60;;;;;;20461236;29;20095;-48
2023/03/28 07:10:52;;;;;;;0.30;0.10;;;-0.90;72.80;;;;;;20425885;29;20549;-48
2023/03/28 07:20:54;;;;;;;0.20;0.10;;;0.50;69.00;;;;;;20424867;29;20035;-48
2023/03/28 07:30:56;;;;;;;0.13;0.00;;;1.50;64.70;;;;;;20456992;29;20036;-46
2023/03/28 07:41:00;;;;;;;0.20;0.10;;;2.40;63.30;;;;;;20423707;29;20087;-56
2023/03/28 07:51:05;;;;;;;0.88;0.10;;;3.50;69.60;;;;;;20405595;29;20114;-56
2023/03/28 08:01:11;;;;;;;0.28;0.10;;;4.50;64.50;;;;;;20422188;29;20035;-55
2023/03/28 08:11:26;;;;;;;0.68;0.25;;;4.90;66.10;;;;;;20463483;29;20039;-55
2023/03/28 08:21:30;;;;;;;0.60;0.10;;;5.40;64.40;;;;;;20398911;29;20043;-51
2023/03/28 08:31:32;;;;;;;1.15;0.15;;;5.70;64.70;;;;;;20402868;29;20039;-54
2023/03/28 08:42:16;;;;;;;1.20;0.30;;;5.90;66.00;;;;;;20402802;29;20032;-55
2023/03/28 08:52:19;;;;;;;0.30;0.10;;;6.50;65.60;;;;;;20462820;29;20322;-49
2023/03/28 09:02:28;;;;;;;0.60;0.13;;;6.60;63.50;;;;;;20442748;29;20118;-51
2023/03/28 09:13:09;;;;;;;0.57;0.20;;;7.00;61.10;;;;;;20433456;29;20044;-52
2023/03/28 09:23:24;;;;;;;0.40;0.10;;;6.70;63.50;;;;;;20428843;29;20547;-54
2023/03/28 09:33:48;;;;;;;0.32;0.15;;;7.00;60.90;;;;;;20189947;29;20045;-50
2023/03/28 09:44:00;;;;;;;0.40;0.20;;;7.50;65.50;;;;;;20173550;29;20576;-53
2023/03/28 09:54:06;;;;;;;0.40;0.20;;;7.70;58.20;;;;;;20188283;29;20089;-52
2023/03/28 10:04:30;;;;;;;0.20;0.13;;;8.30;57.90;;;;;;20237393;29;20405;-49
2023/03/28 10:15:01;;;;;;;0.40;0.13;;;8.40;52.40;;;;;;20417130;29;20060;-49
2023/03/28 10:25:32;;;;;;;0.40;0.20;;;8.70;55.40;;;;;;20461359;29;20091;-53
2023/03/28 10:35:35;;;;;;;0.98;0.20;;;9.00;55.20;;;;;;20428298;29;20032;-52
2023/03/28 10:45:53;;;;;;;0.98;0.20;;;9.20;56.80;;;;;;20410980;29;20398;-51
2023/03/28 10:56:14;;;;;;;0.95;0.20;;;8.80;59.50;;;;;;20410186;29;20048;-50
2023/03/28 11:06:37;;;;;;;0.43;0.20;;;9.40;52.30;;;;;;20422426;29;20055;-50
2023/03/28 11:16:48;;;;;;;1.23;0.30;;;9.50;58.20;;;;;;20451643;29;20035;-48
2023/03/28 11:27:37;;;;;;;0.55;0.20;;;10.10;56.30;;;;;;20175618;29;20141;-51
2023/03/28 11:38:09;;;;;;;0.55;0.20;;;10.20;57.00;;;;;;20166223;29;20053;-51
2023/03/28 11:48:33;;;;;;;1.15;0.30;;;9.70;54.80;;;;;;20164342;29;20053;-52
2023/03/28 11:58:43;;;;;;;0.60;0.30;;;10.10;62.90;;;;;;20310073;29;20138;-50
2023/03/28 12:09:05;;;;;;;0.70;0.20;;;9.70;57.10;;;;;;20421055;29;20051;-50
2023/03/28 12:19:16;;;;;;;0.65;0.30;;;9.70;58.70;;;;;;20414612;29;20386;-52
2023/03/28 12:29:45;;;;;;;0.75;0.38;;;10.20;65.30;;;;;;20403468;29;20580;-49
2023/03/28 12:39:56;;;;;;;1.48;0.50;;;11.00;63.70;;;;;;20419069;29;20094;-49
2023/03/28 12:50:25;;;;;;;0.73;0.32;;;11.40;58.70;;;;;;20421160;29;20393;-48
2023/03/28 13:00:46;;;;;;;0.90;0.50;;;11.50;58.10;;;;;;20436899;29;20068;-50
2023/03/28 13:11:15;;;;;;;2.05;0.40;;;11.20;66.30;;;;;;20340318;29;20037;-49
2023/03/28 13:21:35;;;;;;;;;;;11.10;63.40;;;;;;20343122;29;20095;-51
2023/03/28 13:31:42;;;;;;;0.63;0.50;;;11.20;65.90;;;;;;20367789;29;19918;-50
2023/03/28 13:41:44;;;;;;;2.55;0.77;;;11.60;66.40;;;;;;20337999;29;20036;-53
2023/03/28 13:52:06;;;;;;;2.70;0.80;;;11.50;60.50;;;;;;20349416;29;20040;-49
2023/03/28 14:02:30;;;;;;;2.10;0.73;;;11.20;58.20;;;;;;20362936;29;20054;-53
2023/03/28 14:12:32;;;;;;;1.02;0.65;;;10.90;64.90;;;;;;20473294;29;20052;-50
2023/03/28 14:22:38;;;;;;;2.15;0.70;;;10.90;63.80;;;;;;20424717;29;20032;-46
2023/03/28 14:32:49;;;;;;;1.00;0.60;;;10.70;60.60;;;;;;20429114;29;20039;-52
2023/03/28 14:43:40;;;;;;;1.13;0.68;;;10.20;61.10;;;;;;20428241;29;20485;-52
2023/03/28 14:53:45;;;;;;;1.98;0.88;;;9.50;59.90;;;;;;20496249;29;20551;-53
2023/03/28 15:03:51;;;;;;;1.70;1.10;;;9.10;59.40;;;;;;20437762;29;20396;-55
2023/03/28 15:14:01;;;;;;;3.03;0.95;;;8.60;61.50;;;;;;20451942;29;20031;-50
2023/03/28 15:24:05;;;;;;;4.23;1.00;;;8.10;61.40;;;;;;20457798;29;20457;-54
2023/03/28 15:34:17;;;;;;;1.92;0.93;;;7.70;63.60;;;;;;20437461;29;20031;-53
2023/03/28 15:44:27;;;;;;;2.10;1.02;;;7.40;62.50;;;;;;20446088;29;20493;-55
2023/03/28 15:54:33;;;;;;;1.85;1.23;;;7.00;64.30;;;;;;20461654;29;20500;-56
2023/03/28 16:04:35;;;;;;;2.05;1.13;;;6.50;64.10;;;;;;20426309;29;20556;-50
2023/03/28 16:14:44;;;;;;;1.65;1.10;;;6.00;65.90;;;;;;20421593;29;20063;-49
2023/03/28 16:25:06;;;;;;;2.15;1.20;;;5.10;67.40;;;;;;20177583;29;20052;-55
2023/03/28 16:35:09;;;;;;;1.90;1.25;;;4.40;68.80;;;;;;20176982;29;20094;-55
2023/03/28 16:45:12;;;;;;;1.77;1.02;;;4.00;68.60;;;;;;20175073;29;20101;-45
2023/03/28 16:55:16;;;;;;;1.95;1.13;;;3.70;74.10;;;;;;20223075;29;20476;-55
2023/03/28 17:05:18;;;;;;;1.95;1.25;;;3.30;75.90;;;;;;20419617;29;20052;-56
2023/03/28 17:15:20;;;;;;;2.65;1.38;;;2.70;75.10;;;;;;20418375;29;20408;-56
2023/03/28 17:25:22;;;;;;;4.25;1.25;;;2.40;77.90;;;;;;20421667;29;20024;-56
2023/03/28 17:35:24;;;;;;;3.47;1.13;;;2.00;79.50;;;;;;20462735;29;20362;-56
2023/03/28 17:45:25;;;;;;;3.13;1.50;;;1.80;80.80;;;;;;20469765;29;20102;-56
2023/03/28 17:55:27;;;;;;;2.30;1.20;;;1.60;81.60;;;;;;20422533;29;20528;-55
2023/03/28 18:05:29;;;;;;;2.95;1.48;;;1.40;82.90;;;;;;20461419;29;20445;-52
2023/03/28 18:15:32;;;;;;;3.92;1.35;;;1.20;82.60;;;;;;20442543;29;20048;-51
2023/03/28 18:25:37;;;;;;;4.45;1.20;;;1.60;77.30;;;;;;20448952;29;20042;-53
2023/03/28 18:35:39;;;;;;;1.95;1.10;;;2.50;73.50;;;;;;20428994;29;20035;-53
2023/03/28 18:45:40;;;;;;;3.83;1.60;;;3.20;73.90;;;;;;20436033;29;20031;-54
2023/03/28 18:55:42;;;;;;;2.88;1.30;;;3.20;70.70;;;;;;20470834;29;20028;-51
2023/03/28 19:05:44;;;;;;;2.90;1.20;;;3.50;71.90;;;;;;20496982;29;20047;-55
2023/03/28 19:15:46;;;;;;;6.97;2.22;;;2.80;75.00;;;;;;20415788;29;20561;-54
2023/03/28 19:25:48;;;;;;;2.20;1.35;;;1.80;80.10;;;;;;20415817;29;20032;-54
2023/03/28 19:35:50;;;;;;;3.40;1.73;;;1.20;82.60;;;;;;20420877;29;20544;-54
2023/03/28 19:45:52;;;;;;;4.70;1.58;;;0.70;84.40;;;;;;20428707;29;20063;-53
2023/03/28 19:55:55;;;;;;;2.40;1.38;;;0.50;86.50;;;;;;20492260;29;20477;-54
2023/03/28 20:06:06;;;;;;;3.92;1.90;;;0.30;87.80;;;;;;20379327;29;1211920;-55
2023/03/28 20:16:09;;;;;;;3.13;1.83;;;0.10;88.80;;;;;;20421362;29;20043;-54
2023/03/28 20:26:25;;;;;;;6.47;2.28;;;0.20;87.80;;;;;;20415504;29;20400;-54
2023/03/28 20:36:27;;;;;;;2.78;1.83;;;0.20;89.10;;;;;;20420622;29;20488;-53
2023/03/28 20:46:31;;;;;;;7.65;1.90;;;0.10;88.50;;;;;;20402667;29;20098;-54
2023/03/28 20:56:33;;;;;;;4.47;1.67;;;0.30;88.70;;;;;;20461992;29;20039;-53
2023/03/28 21:06:36;;;;;;;4.47;1.80;;;0.20;88.60;;;;;;20419744;29;20060;-54
2023/03/28 21:16:39;;;;;;;2.67;1.50;;;0.10;89.40;;;;;;20443608;29;20427;-53
2023/03/28 21:26:41;;;;;;;3.42;1.85;;;0.20;88.20;;;;;;20418901;29;20039;-51
2023/03/28 21:36:42;;;;;;;3.22;1.50;;;0.50;84.70;;;;;;20481616;29;20070;-54
2023/03/28 21:46:44;;;;;;;3.80;1.80;;;0.70;81.80;;;;;;20444331;29;20036;-46
2023/03/28 21:56:46;;;;;;;4.25;2.00;;;0.30;88.00;;;;;;20417098;29;20027;-52
2023/03/28 22:06:47;;;;;;;2.80;1.83;;;0.10;89.00;;;;;;20434657;28;20063;-51
2023/03/28 22:16:49;;;;;;;2.75;1.90;;;0.20;89.10;;;;;;20444462;29;20539;-45
2023/03/28 22:26:51;;;;;;;2.63;1.35;;;0.10;88.50;;;;;;20490960;29;20040;-53
2023/03/28 22:36:53;;;;;;;1.83;0.90;;;0.70;78.70;;;;;;20470152;29;20031;-54
2023/03/28 22:47:00;;;;;;;1.13;0.50;;;0.90;75.00;;;;;;20454037;29;20035;-51
2023/03/28 22:57:04;;;;;;;1.52;0.77;;;0.90;72.40;;;;;;20427589;29;20440;-51
2023/03/28 23:07:07;;;;;;;1.42;1.00;;;1.10;73.00;;;;;;20446197;29;20488;-49
2023/03/28 23:17:09;;;;;;;1.40;0.70;;;1.20;71.90;;;;;;20449064;29;20031;-54
2023/03/28 23:27:11;;;;;;;2.97;1.10;;;2.30;70.80;;;;;;20419237;29;20063;-54
2023/03/28 23:37:13;;;;;;;2.88;1.63;;;2.00;74.40;;;;;;20424680;29;20043;-52
2023/03/28 23:47:15;;;;;;;3.60;2.17;;;1.90;77.10;;;;;;20443549;29;20039;-53
2023/03/28 23:57:17;;;;;;;2.97;2.20;;;1.30;80.90;;;;;;20484933;29;20028;-45
